Rp Zug — HE7351 — position and weather

sailwx.info

Track history (hours):
 
Tides and Currents Weather Stations Pressure Air Temp Water Temp Dewpoint Dewpoint Depression Visibility Wind Speed Wind Dir Waves Ship Positions

Rp Zug

Last reported at 2016-Feb-14 20:32 UTC. Time now 2016-Feb-14 21:02 UTC.
Position N 52°25' E 004°48'.

Length 110 m; draft 2.8 m.

Type: Tanker. MMSI: 269057351.

Date/timePositionNaut miles runAvg speedWind from/ knotsBaromVisibWave heightAir tempDewpointWater temp
2016-Feb-14 20:32N 52°25' E 004°48'0 0.0
2016-Feb-14 19:23N 52°25' E 004°48'0 0.0
2016-Feb-14 18:32N 52°25' E 004°48'0 0.0
2016-Feb-14 17:32N 52°25' E 004°48'0 0.0
2016-Feb-14 16:32N 52°25' E 004°48'0 0.0
2016-Feb-14 15:29N 52°25' E 004°48'0 0.0
2016-Feb-14 14:32N 52°25' E 004°48'0 0.0
2016-Feb-14 13:32N 52°25' E 004°48'0 0.0
2016-Feb-14 12:32N 52°25' E 004°48'0 0.0
2016-Feb-14 11:32N 52°25' E 004°48'0 0.0
2016-Feb-14 10:29N 52°25' E 004°48'0 0.0
2016-Feb-14 09:29N 52°25' E 004°48'0 0.0
2016-Feb-14 08:32N 52°25' E 004°48'0 0.0
2016-Feb-14 07:29N 52°25' E 004°48'1 1.3
2016-Feb-14 06:34N 52°26' E 004°46'7 7.2
2016-Feb-14 05:34N 52°23' E 004°57'8 7.9
2016-Feb-14 04:33N 52°15' E 005°01'8 7.7
2016-Feb-14 03:32N 52°07' E 005°03'19 6.4
2016-Feb-14 00:29N 51°55' E 005°27'7 6.5
2016-Feb-13 23:24N 51°54' E 005°39'1310.5
2016-Feb-13 22:10N 51°52' E 005°59'712.0
2016-Feb-13 21:33N 51°50' E 006°11'20 7.9
2016-Feb-13 19:04N 51°38' E 006°36'4 8.1
2016-Feb-13 18:32N 51°35' E 006°40'18 8.9
2016-Feb-13 16:32N 51°17' E 006°43'7 7.4
2016-Feb-13 15:33N 51°11' E 006°48'16 7.7
2016-Feb-13 13:31N 50°56' E 006°58'112 8.0
2016-Feb-12 23:30N 49°20' E 008°27'9 9.3
2016-Feb-12 22:33N 49°12' E 008°23'8 7.6
2016-Feb-12 21:33N 49°04' E 008°20'0 0.0
2016-Feb-12 20:33N 49°04' E 008°20'0 0.0
2016-Feb-12 19:32N 49°04' E 008°20'0 0.0
2016-Feb-12 18:33N 49°04' E 008°20'0 0.0
2016-Feb-12 17:33N 49°04' E 008°20'0 0.0
2016-Feb-12 16:33N 49°04' E 008°20'0 0.0
2016-Feb-12 15:33N 49°04' E 008°20'0 0.0
2016-Feb-12 14:33N 49°04' E 008°20'0 0.0
2016-Feb-12 13:33N 49°04' E 008°20'0 0.0
2016-Feb-12 12:33N 49°04' E 008°20'0 0.0
2016-Feb-12 11:33N 49°04' E 008°20'0 0.1
2016-Feb-12 10:33N 49°04' E 008°20'0 0.0
2016-Feb-12 09:28N 49°04' E 008°20'0 0.0
2016-Feb-12 08:31N 49°04' E 008°20'0 0.0
2016-Feb-12 07:31N 49°04' E 008°20'0 0.0
2016-Feb-12 06:31N 49°04' E 008°20'0 0.0
2016-Feb-12 05:31N 49°04' E 008°20'0 0.0
2016-Feb-12 04:31N 49°04' E 008°20'0 0.0
2016-Feb-12 03:28N 49°04' E 008°20'0 0.0
2016-Feb-12 02:31N 49°04' E 008°20'0 0.0
2016-Feb-12 01:31N 49°04' E 008°20'0 0.0
2016-Feb-12 00:31N 49°04' E 008°20'0 0.0
2016-Feb-11 23:31N 49°04' E 008°20'0 0.0
2016-Feb-11 22:31N 49°04' E 008°20'0 0.0
2016-Feb-11 21:25N 49°04' E 008°20'0 0.0
2016-Feb-11 19:19N 49°04' E 008°20'0 0.0
2016-Feb-11 18:19N 49°04' E 008°20'0 0.0
2016-Feb-11 17:31N 49°04' E 008°20'0 0.0
2016-Feb-11 16:28N 49°04' E 008°20'0 0.0
2016-Feb-11 15:31N 49°04' E 008°20'0 0.0
2016-Feb-11 14:31N 49°04' E 008°20'0 0.0
2016-Feb-11 13:31N 49°04' E 008°20'0 0.0
2016-Feb-11 12:31N 49°04' E 008°20'0 0.0
2016-Feb-11 11:25N 49°04' E 008°20'0 0.0
2016-Feb-11 10:31N 49°04' E 008°20'0 0.0
2016-Feb-11 09:31N 49°04' E 008°20'0 0.0
2016-Feb-11 08:31N 49°04' E 008°20'0 0.0
2016-Feb-11 07:31N 49°04' E 008°20'0 0.0
2016-Feb-11 06:33N 49°04' E 008°20'0 0.0
2016-Feb-11 05:33N 49°04' E 008°20'0 0.0
2016-Feb-11 04:33N 49°04' E 008°20'0 0.0
2016-Feb-11 03:33N 49°04' E 008°20'0 0.0
2016-Feb-11 02:33N 49°04' E 008°20'0 0.0
2016-Feb-11 01:33N 49°04' E 008°20'0 0.0
2016-Feb-11 00:33N 49°04' E 008°20'0 0.0
2016-Feb-10 23:33N 49°04' E 008°20'0 0.0
2016-Feb-10 22:33N 49°04' E 008°20'0 0.0
2016-Feb-10 21:33N 49°04' E 008°20'0 0.0
2016-Feb-10 20:33N 49°04' E 008°20'0 0.0
2016-Feb-10 19:33N 49°04' E 008°20'0 0.0
2016-Feb-10 18:32N 49°04' E 008°20'0 0.0
2016-Feb-10 17:33N 49°04' E 008°20'0 0.0
2016-Feb-10 16:33N 49°04' E 008°20'0 0.0
2016-Feb-10 15:33N 49°04' E 008°20'0 0.0
2016-Feb-10 14:33N 49°04' E 008°20'0 0.2
2016-Feb-10 13:33N 49°04' E 008°20'0 0.0
2016-Feb-10 12:33N 49°04' E 008°20'0 0.0
2016-Feb-10 11:33N 49°04' E 008°20'0 0.0
2016-Feb-10 10:33N 49°04' E 008°20'0 0.0
2016-Feb-10 09:33N 49°04' E 008°20'0 0.2
2016-Feb-10 08:33N 49°05' E 008°20'19 9.4
2016-Feb-10 06:29N 48°48' E 008°05'9 9.2
2016-Feb-10 05:33N 48°42' E 007°56'2 0.1
2016-Feb-08 15:20N 48°40' E 007°54'3 3.4
2016-Feb-08 14:33N 48°42' E 007°56'18 4.1
2016-Feb-08 10:14N 48°57' E 008°11'3 3.4
2016-Feb-08 09:20N 48°59' E 008°15'3 3.7
2016-Feb-08 08:33N 49°01' E 008°18'4 3.9
2016-Feb-08 07:33N 49°04' E 008°20'4 3.9
2016-Feb-08 06:33N 49°08' E 008°22'4 3.8
2016-Feb-08 05:33N 49°12' E 008°23'4 3.8
2016-Feb-08 04:34N 49°15' E 008°25'4 3.9
2016-Feb-08 03:31N 49°18' E 008°29'3 3.3
2016-Feb-08 02:32N 49°22' E 008°30'105 3.8
2016-Feb-06 22:33N 50°50' E 006°60'1 0.1
2016-Feb-06 10:10N 50°51' E 006°59'1 0.1
2016-Feb-05 05:31N 50°49' E 006°60'0 0.0
2016-Feb-05 04:21N 50°49' E 006°60'0 0.0
2016-Feb-05 03:29N 50°49' E 006°60'  
Track history (hours):
 
Tides and Currents Weather Stations Pressure Air Temp Water Temp Dewpoint Dewpoint Depression Visibility Wind Speed Wind Dir Waves Ship Positions

Rp Zug

Last reported at 2016-Feb-14 20:32 UTC. Time now 2016-Feb-14 21:02 UTC.
Position N 52°25' E 004°48'.

Length 110 m; draft 2.8 m.

Type: Tanker. MMSI: 269057351.

Date/timePositionNaut miles runAvg speedWind from/ knotsBaromVisibWave heightAir tempDewpointWater temp
2016-Feb-14 20:32N 52°25' E 004°48'0 0.0
2016-Feb-14 19:23N 52°25' E 004°48'0 0.0
2016-Feb-14 18:32N 52°25' E 004°48'0 0.0
2016-Feb-14 17:32N 52°25' E 004°48'0 0.0
2016-Feb-14 16:32N 52°25' E 004°48'0 0.0
2016-Feb-14 15:29N 52°25' E 004°48'0 0.0
2016-Feb-14 14:32N 52°25' E 004°48'0 0.0
2016-Feb-14 13:32N 52°25' E 004°48'0 0.0
2016-Feb-14 12:32N 52°25' E 004°48'0 0.0
2016-Feb-14 11:32N 52°25' E 004°48'0 0.0
2016-Feb-14 10:29N 52°25' E 004°48'0 0.0
2016-Feb-14 09:29N 52°25' E 004°48'0 0.0
2016-Feb-14 08:32N 52°25' E 004°48'0 0.0
2016-Feb-14 07:29N 52°25' E 004°48'1 1.3
2016-Feb-14 06:34N 52°26' E 004°46'7 7.2
2016-Feb-14 05:34N 52°23' E 004°57'8 7.9
2016-Feb-14 04:33N 52°15' E 005°01'8 7.7
2016-Feb-14 03:32N 52°07' E 005°03'19 6.4
2016-Feb-14 00:29N 51°55' E 005°27'7 6.5
2016-Feb-13 23:24N 51°54' E 005°39'1310.5
2016-Feb-13 22:10N 51°52' E 005°59'712.0
2016-Feb-13 21:33N 51°50' E 006°11'20 7.9
2016-Feb-13 19:04N 51°38' E 006°36'4 8.1
2016-Feb-13 18:32N 51°35' E 006°40'18 8.9
2016-Feb-13 16:32N 51°17' E 006°43'7 7.4
2016-Feb-13 15:33N 51°11' E 006°48'16 7.7
2016-Feb-13 13:31N 50°56' E 006°58'112 8.0
2016-Feb-12 23:30N 49°20' E 008°27'9 9.3
2016-Feb-12 22:33N 49°12' E 008°23'8 7.6
2016-Feb-12 21:33N 49°04' E 008°20'0 0.0
2016-Feb-12 20:33N 49°04' E 008°20'0 0.0
2016-Feb-12 19:32N 49°04' E 008°20'0 0.0
2016-Feb-12 18:33N 49°04' E 008°20'0 0.0
2016-Feb-12 17:33N 49°04' E 008°20'0 0.0
2016-Feb-12 16:33N 49°04' E 008°20'0 0.0
2016-Feb-12 15:33N 49°04' E 008°20'0 0.0
2016-Feb-12 14:33N 49°04' E 008°20'0 0.0
2016-Feb-12 13:33N 49°04' E 008°20'0 0.0
2016-Feb-12 12:33N 49°04' E 008°20'0 0.0
2016-Feb-12 11:33N 49°04' E 008°20'0 0.1
2016-Feb-12 10:33N 49°04' E 008°20'0 0.0
2016-Feb-12 09:28N 49°04' E 008°20'0 0.0
2016-Feb-12 08:31N 49°04' E 008°20'0 0.0
2016-Feb-12 07:31N 49°04' E 008°20'0 0.0
2016-Feb-12 06:31N 49°04' E 008°20'0 0.0
2016-Feb-12 05:31N 49°04' E 008°20'0 0.0
2016-Feb-12 04:31N 49°04' E 008°20'0 0.0
2016-Feb-12 03:28N 49°04' E 008°20'0 0.0
2016-Feb-12 02:31N 49°04' E 008°20'0 0.0
2016-Feb-12 01:31N 49°04' E 008°20'0 0.0
2016-Feb-12 00:31N 49°04' E 008°20'0 0.0
2016-Feb-11 23:31N 49°04' E 008°20'0 0.0
2016-Feb-11 22:31N 49°04' E 008°20'0 0.0
2016-Feb-11 21:25N 49°04' E 008°20'0 0.0
2016-Feb-11 19:19N 49°04' E 008°20'0 0.0
2016-Feb-11 18:19N 49°04' E 008°20'0 0.0
2016-Feb-11 17:31N 49°04' E 008°20'0 0.0
2016-Feb-11 16:28N 49°04' E 008°20'0 0.0
2016-Feb-11 15:31N 49°04' E 008°20'0 0.0
2016-Feb-11 14:31N 49°04' E 008°20'0 0.0
2016-Feb-11 13:31N 49°04' E 008°20'0 0.0
2016-Feb-11 12:31N 49°04' E 008°20'0 0.0
2016-Feb-11 11:25N 49°04' E 008°20'0 0.0
2016-Feb-11 10:31N 49°04' E 008°20'0 0.0
2016-Feb-11 09:31N 49°04' E 008°20'0 0.0
2016-Feb-11 08:31N 49°04' E 008°20'0 0.0
2016-Feb-11 07:31N 49°04' E 008°20'0 0.0
2016-Feb-11 06:33N 49°04' E 008°20'0 0.0
2016-Feb-11 05:33N 49°04' E 008°20'0 0.0
2016-Feb-11 04:33N 49°04' E 008°20'0 0.0
2016-Feb-11 03:33N 49°04' E 008°20'0 0.0
2016-Feb-11 02:33N 49°04' E 008°20'0 0.0
2016-Feb-11 01:33N 49°04' E 008°20'0 0.0
2016-Feb-11 00:33N 49°04' E 008°20'0 0.0
2016-Feb-10 23:33N 49°04' E 008°20'0 0.0
2016-Feb-10 22:33N 49°04' E 008°20'0 0.0
2016-Feb-10 21:33N 49°04' E 008°20'0 0.0
2016-Feb-10 20:33N 49°04' E 008°20'0 0.0
2016-Feb-10 19:33N 49°04' E 008°20'0 0.0
2016-Feb-10 18:32N 49°04' E 008°20'0 0.0
2016-Feb-10 17:33N 49°04' E 008°20'0 0.0
2016-Feb-10 16:33N 49°04' E 008°20'0 0.0
2016-Feb-10 15:33N 49°04' E 008°20'0 0.0
2016-Feb-10 14:33N 49°04' E 008°20'0 0.2
2016-Feb-10 13:33N 49°04' E 008°20'0 0.0
2016-Feb-10 12:33N 49°04' E 008°20'0 0.0
2016-Feb-10 11:33N 49°04' E 008°20'0 0.0
2016-Feb-10 10:33N 49°04' E 008°20'0 0.0
2016-Feb-10 09:33N 49°04' E 008°20'0 0.2
2016-Feb-10 08:33N 49°05' E 008°20'19 9.4
2016-Feb-10 06:29N 48°48' E 008°05'9 9.2
2016-Feb-10 05:33N 48°42' E 007°56'2 0.1
2016-Feb-08 15:20N 48°40' E 007°54'3 3.4
2016-Feb-08 14:33N 48°42' E 007°56'18 4.1
2016-Feb-08 10:14N 48°57' E 008°11'3 3.4
2016-Feb-08 09:20N 48°59' E 008°15'3 3.7
2016-Feb-08 08:33N 49°01' E 008°18'4 3.9
2016-Feb-08 07:33N 49°04' E 008°20'4 3.9
2016-Feb-08 06:33N 49°08' E 008°22'4 3.8
2016-Feb-08 05:33N 49°12' E 008°23'4 3.8
2016-Feb-08 04:34N 49°15' E 008°25'4 3.9
2016-Feb-08 03:31N 49°18' E 008°29'3 3.3
2016-Feb-08 02:32N 49°22' E 008°30'105 3.8
2016-Feb-06 22:33N 50°50' E 006°60'1 0.1
2016-Feb-06 10:10N 50°51' E 006°59'1 0.1
2016-Feb-05 05:31N 50°49' E 006°60'0 0.0
2016-Feb-05 04:21N 50°49' E 006°60'0 0.0
2016-Feb-05 03:29N 50°49' E 006°60'  

Dump ship's entire track history